Hay River, Canada
Current Conditions -  °F | °C
As of 9:00 AM on Saturday 25 Oct 2014 (Local Time) from CYHY Reporting Station
Overcast Overcast  
Wind Chill: 18°   Ceiling: 700
Heat Index: 25°   Visibility: 15mi
Dew Point: 23°   Wind: 6mph
Humidity: 93%   Direction: 230°SW
Pressure: 29.92"   Gusts: NA
Location:  60.82°N, 115.78°W
Report Text: CYHY 251500Z 23005KT 15SM OVC007 M04/M05 A2992 RMK ST8 SLP144
Loading
Personal Weather Stations






























Interactive Weather Map
Tropical Storm Tracking
New forecast layout! Learn more

10-Day Weather Forecast

Advertisements
Track Severe Weather on mobile